Time;durP1;ratioP1;P1;durP2;ratioP2;P2;SDS_P1;SDS_P2;PMS_P1;PMS_P2;Temp;Humidity;BMP_temperature;BMP_pressure;BME280_temperature;BME280_humidity;BME280_pressure;Samples;Min_cycle;Max_cycle;Signal;HPM_P1;HPM_P2
2023/07/13 00:02:08;;;;;;;8.30;2.88;;;21.10;99.90;;;;;;5142794;27;20268;-68
2023/07/13 00:04:34;;;;;;;8.45;3.22;;;20.90;99.90;;;;;;5141650;27;20066;-68
2023/07/13 00:06:59;;;;;;;7.13;3.37;;;20.90;99.90;;;;;;5141550;27;20059;-69
2023/07/13 00:09:25;;;;;;;4.43;2.20;;;21.00;99.90;;;;;;5137488;27;20023;-68
2023/07/13 00:11:53;;;;;;;4.57;2.27;;;21.00;99.90;;;;;;5147669;27;20497;-68
2023/07/13 00:14:19;;;;;;;9.73;1.85;;;21.10;99.90;;;;;;5142800;27;20042;-68
2023/07/13 00:16:45;;;;;;;4.53;2.30;;;21.20;99.90;;;;;;5134728;27;20085;-69
2023/07/13 00:19:12;;;;;;;3.83;2.35;;;21.10;99.90;;;;;;5137983;27;20458;-68
2023/07/13 00:21:38;;;;;;;2.60;1.70;;;21.20;99.90;;;;;;5141370;27;20029;-68
2023/07/13 00:24:06;;;;;;;4.63;2.30;;;21.20;99.90;;;;;;5143114;27;20030;-68
2023/07/13 00:26:32;;;;;;;4.53;2.33;;;21.30;99.90;;;;;;5139257;27;20041;-69
2023/07/13 00:28:58;;;;;;;8.88;2.22;;;21.20;99.90;;;;;;5143055;27;20114;-69
2023/07/13 00:31:24;;;;;;;;;;;21.10;99.90;;;;;;5137307;27;20035;-68
2023/07/13 00:33:50;;;;;;;2.60;1.55;;;21.30;99.90;;;;;;5143640;27;19906;-68
2023/07/13 00:36:15;;;;;;;2.67;1.70;;;21.10;99.90;;;;;;5139187;27;20019;-69
2023/07/13 00:38:41;;;;;;;3.43;1.80;;;21.20;99.90;;;;;;5143309;27;20031;-69
2023/07/13 00:41:07;;;;;;;4.68;1.50;;;21.20;99.90;;;;;;5142316;27;20118;-69
2023/07/13 00:43:33;;;;;;;1.90;1.20;;;21.20;99.90;;;;;;5142270;27;20569;-68
2023/07/13 00:45:59;;;;;;;2.23;1.40;;;21.20;99.90;;;;;;5142699;27;20026;-68
2023/07/13 00:48:29;;;;;;;2.50;1.50;;;21.30;99.90;;;;;;5144033;27;20034;-69
2023/07/13 00:50:58;;;;;;;2.25;1.40;;;21.40;99.90;;;;;;5143723;27;20108;-68
2023/07/13 00:53:26;;;;;;;2.75;1.30;;;21.30;99.90;;;;;;5137473;27;20031;-71
2023/07/13 00:55:53;;;;;;;4.50;1.48;;;21.30;99.90;;;;;;5141025;27;20062;-72
2023/07/13 00:58:19;;;;;;;3.28;1.60;;;21.30;99.90;;;;;;5141178;27;20042;-68
2023/07/13 01:00:48;;;;;;;4.43;1.58;;;21.40;99.90;;;;;;5133919;27;20069;-69
2023/07/13 01:03:14;;;;;;;2.22;1.70;;;21.40;99.90;;;;;;5140793;27;20470;-68
2023/07/13 01:05:40;;;;;;;3.35;1.30;;;21.40;99.90;;;;;;5141581;27;20015;-69
2023/07/13 01:08:05;;;;;;;3.17;2.07;;;21.50;99.90;;;;;;5134587;27;20083;-68
2023/07/13 01:10:38;;;;;;;2.20;1.33;;;21.50;99.90;;;;;;5141393;27;20031;-68
2023/07/13 01:13:07;;;;;;;1.45;1.35;;;21.50;99.90;;;;;;5145412;27;20025;-68
2023/07/13 01:15:41;;;;;;;1.83;0.90;;;21.30;99.90;;;;;;5141677;27;20027;-68
2023/07/13 01:18:19;;;;;;;2.78;1.30;;;21.40;99.90;;;;;;5137515;27;20026;-68
2023/07/13 01:20:55;;;;;;;4.20;1.20;;;21.40;99.90;;;;;;5141996;27;20019;-69
2023/07/13 01:23:21;;;;;;;2.30;1.00;;;21.50;99.90;;;;;;5137169;27;20098;-69
2023/07/13 01:25:47;;;;;;;3.88;1.10;;;21.40;99.90;;;;;;5144693;27;20229;-68
2023/07/13 01:28:13;;;;;;;1.90;1.20;;;21.40;99.90;;;;;;5136603;27;20023;-68
2023/07/13 01:30:40;;;;;;;2.20;1.20;;;21.50;99.90;;;;;;5136274;27;20027;-68
2023/07/13 01:33:09;;;;;;;3.08;1.55;;;21.40;99.90;;;;;;5145841;27;20264;-69
2023/07/13 01:35:35;;;;;;;2.67;1.48;;;21.30;99.90;;;;;;5144967;27;20763;-68
2023/07/13 01:38:01;;;;;;;;;;;21.40;99.90;;;;;;5139380;27;20557;-69
2023/07/13 01:40:28;;;;;;;2.40;1.27;;;21.30;99.90;;;;;;5142525;27;20006;-68
2023/07/13 01:42:54;;;;;;;1.35;1.10;;;21.40;99.60;;;;;;5141245;27;20031;-68
2023/07/13 01:45:19;;;;;;;2.40;1.23;;;21.40;99.30;;;;;;5147578;27;20022;-68
2023/07/13 01:47:45;;;;;;;2.67;1.57;;;21.40;98.00;;;;;;5133860;27;20054;-67
2023/07/13 01:50:11;;;;;;;3.80;1.03;;;21.40;98.00;;;;;;5142440;27;20019;-67
2023/07/13 01:52:36;;;;;;;2.20;1.20;;;21.30;96.30;;;;;;5141131;27;20335;-68
2023/07/13 01:55:02;;;;;;;4.27;1.87;;;21.30;95.70;;;;;;5143738;27;20523;-68
2023/07/13 01:57:28;;;;;;;3.55;1.13;;;21.30;95.20;;;;;;5142520;27;20059;-68
2023/07/13 01:59:53;;;;;;;2.13;1.27;;;21.30;95.70;;;;;;5142926;27;20039;-68
2023/07/13 02:02:19;;;;;;;4.37;1.40;;;21.20;95.10;;;;;;5134805;27;20015;-69
2023/07/13 02:04:45;;;;;;;3.40;1.47;;;21.20;95.40;;;;;;5136375;27;21225;-70
2023/07/13 02:07:11;;;;;;;1.85;0.90;;;21.20;95.60;;;;;;5140237;27;20634;-68
2023/07/13 02:09:36;;;;;;;4.70;1.30;;;21.30;94.90;;;;;;5138329;27;20482;-70
2023/07/13 02:12:03;;;;;;;2.77;1.30;;;21.30;95.10;;;;;;5138719;27;20295;-69
2023/07/13 02:14:28;;;;;;;1.80;0.80;;;21.20;94.70;;;;;;5143311;27;20187;-68
2023/07/13 02:16:54;;;;;;;2.28;1.10;;;21.30;94.90;;;;;;5136164;27;20495;-68
2023/07/13 02:19:20;;;;;;;1.77;1.07;;;21.30;94.50;;;;;;5141002;27;20050;-68
2023/07/13 02:21:45;;;;;;;4.30;1.30;;;21.30;94.80;;;;;;5139454;27;20334;-68
2023/07/13 02:24:17;;;;;;;3.47;1.23;;;21.30;94.40;;;;;;5142673;27;20410;-68
2023/07/13 02:26:43;;;;;;;3.15;1.20;;;21.30;94.10;;;;;;5140191;27;20029;-68
2023/07/13 02:29:08;;;;;;;2.50;1.40;;;21.20;94.60;;;;;;5141211;27;20425;-69
2023/07/13 02:31:35;;;;;;;3.90;1.50;;;21.30;94.70;;;;;;5137655;27;20027;-68
2023/07/13 02:34:02;;;;;;;4.05;1.20;;;21.30;95.10;;;;;;5147005;27;20075;-68
2023/07/13 02:36:28;;;;;;;3.25;1.25;;;21.30;94.60;;;;;;5144967;27;20134;-70
2023/07/13 02:38:54;;;;;;;3.38;1.35;;;21.20;95.50;;;;;;5142846;27;20175;-68
2023/07/13 02:41:19;;;;;;;3.70;1.47;;;21.10;95.40;;;;;;5144329;27;20030;-68
2023/07/13 02:43:45;;;;;;;9.10;2.27;;;21.00;98.00;;;;;;5142004;27;20023;-68
2023/07/13 02:46:10;;;;;;;8.67;1.53;;;20.60;99.90;;;;;;5141591;27;20022;-68
2023/07/13 02:48:38;;;;;;;4.77;1.60;;;20.20;99.90;;;;;;5143682;27;20045;-68
2023/07/13 02:51:03;;;;;;;4.20;1.33;;;19.90;99.90;;;;;;5141359;27;20022;-68
2023/07/13 02:53:29;;;;;;;4.53;1.30;;;20.00;99.90;;;;;;5140968;27;20584;-69
2023/07/13 02:55:55;;;;;;;3.97;1.97;;;19.60;99.90;;;;;;5136775;27;20516;-67
2023/07/13 02:58:20;;;;;;;5.13;1.73;;;19.80;99.90;;;;;;5143918;27;20041;-68
2023/07/13 03:00:47;;;;;;;10.00;2.37;;;19.80;99.90;;;;;;5143570;27;20051;-69
2023/07/13 03:03:13;;;;;;;;;;;19.80;99.90;;;;;;5148123;27;20023;-68
2023/07/13 03:05:42;;;;;;;6.57;1.80;;;19.90;99.90;;;;;;5142286;27;19918;-69
2023/07/13 03:08:09;;;;;;;5.57;2.22;;;20.00;99.90;;;;;;5142223;27;20092;-67
2023/07/13 03:10:35;;;;;;;6.80;2.00;;;19.90;99.90;;;;;;5146804;27;20023;-69
2023/07/13 03:13:00;;;;;;;5.20;1.95;;;19.80;99.90;;;;;;5145259;27;20027;-68
2023/07/13 03:15:27;;;;;;;5.43;2.23;;;19.90;99.90;;;;;;5143113;27;20030;-68
2023/07/13 03:17:52;;;;;;;5.68;2.17;;;19.70;99.90;;;;;;5145057;27;20311;-69
2023/07/13 03:20:18;;;;;;;6.87;1.90;;;19.80;99.90;;;;;;5141912;27;20393;-69
2023/07/13 03:22:44;;;;;;;8.30;2.40;;;19.80;99.90;;;;;;5148149;27;20335;-69
2023/07/13 03:25:10;;;;;;;4.90;1.77;;;19.80;99.90;;;;;;5141266;27;20367;-68
2023/07/13 03:27:36;;;;;;;7.40;1.90;;;19.60;99.90;;;;;;5146973;27;20394;-68
2023/07/13 03:30:03;;;;;;;7.70;1.75;;;19.30;99.90;;;;;;5137710;27;20529;-71
2023/07/13 03:32:29;;;;;;;4.57;1.85;;;19.30;99.90;;;;;;5141848;27;20601;-67
2023/07/13 03:34:55;;;;;;;5.47;1.77;;;19.40;99.90;;;;;;5147058;27;20023;-68
2023/07/13 03:37:20;;;;;;;6.20;2.03;;;19.20;99.90;;;;;;5142759;27;20366;-70
2023/07/13 03:39:46;;;;;;;5.47;1.93;;;19.10;99.90;;;;;;5141007;27;20153;-70
2023/07/13 03:42:12;;;;;;;3.55;1.58;;;19.00;99.90;;;;;;5140534;27;20069;-68
2023/07/13 03:44:40;;;;;;;4.10;1.77;;;18.90;99.90;;;;;;5134177;27;20526;-70
2023/07/13 03:47:06;;;;;;;5.68;1.80;;;18.90;99.90;;;;;;5144998;27;20019;-70
2023/07/13 03:49:31;;;;;;;16.15;2.60;;;19.00;99.90;;;;;;5140224;27;20121;-69
2023/07/13 03:51:57;;;;;;;9.63;2.45;;;18.90;99.90;;;;;;5144629;27;20039;-69
2023/07/13 03:54:23;;;;;;;7.10;2.10;;;18.80;99.90;;;;;;5140502;27;20019;-72
2023/07/13 03:56:49;;;;;;;7.03;2.13;;;18.70;99.90;;;;;;5139312;27;20030;-71
2023/07/13 03:59:14;;;;;;;8.07;2.90;;;18.60;99.90;;;;;;5135591;27;20042;-69
2023/07/13 04:01:40;;;;;;;5.33;2.10;;;18.50;99.90;;;;;;5139044;27;20035;-71
2023/07/13 04:04:06;;;;;;;11.53;2.03;;;18.00;99.90;;;;;;5143211;27;20034;-71
2023/07/13 04:06:32;;;;;;;4.88;2.08;;;17.70;99.90;;;;;;5137354;27;20019;-71
2023/07/13 04:09:00;;;;;;;5.10;2.28;;;18.00;99.90;;;;;;5139696;27;20042;-69
2023/07/13 04:11:31;;;;;;;3.92;1.80;;;18.30;99.90;;;;;;5138085;27;20123;-70
2023/07/13 04:13:57;;;;;;;2.42;1.70;;;18.20;99.90;;;;;;5143949;27;20019;-70
2023/07/13 04:16:23;;;;;;;11.98;3.00;;;18.30;99.90;;;;;;5138350;27;20520;-70
2023/07/13 04:18:50;;;;;;;5.30;2.13;;;18.40;99.90;;;;;;5132945;27;20035;-71
2023/07/13 04:21:16;;;;;;;;;;;18.40;99.90;;;;;;5137254;27;20693;-71
2023/07/13 04:23:41;;;;;;;6.28;1.90;;;18.50;99.90;;;;;;5137878;27;19971;-70
2023/07/13 04:26:07;;;;;;;7.40;1.93;;;18.50;99.90;;;;;;5138723;27;20439;-70
2023/07/13 04:28:34;;;;;;;4.13;1.98;;;18.50;99.90;;;;;;5137204;27;20065;-71
2023/07/13 04:31:00;;;;;;;3.47;2.00;;;18.60;99.90;;;;;;5140511;27;20035;-70
2023/07/13 04:33:26;;;;;;;11.68;2.40;;;18.40;99.90;;;;;;5140218;27;20027;-71
2023/07/13 04:35:57;;;;;;;10.10;2.25;;;18.50;99.90;;;;;;5137754;27;20498;-70
2023/07/13 04:38:29;;;;;;;5.45;2.35;;;18.40;99.90;;;;;;5141003;27;20083;-70
2023/07/13 04:40:56;;;;;;;7.03;2.17;;;18.50;99.90;;;;;;5138571;27;20105;-70
2023/07/13 04:43:23;;;;;;;6.93;1.95;;;18.50;99.90;;;;;;5131938;27;20031;-70
2023/07/13 04:45:50;;;;;;;8.18;1.90;;;18.30;99.90;;;;;;5139136;27;20076;-71
2023/07/13 04:48:16;;;;;;;6.60;1.92;;;17.70;99.90;;;;;;5141371;27;20046;-70
2023/07/13 04:50:43;;;;;;;4.43;2.15;;;17.80;99.90;;;;;;5142512;27;20075;-70
2023/07/13 04:53:10;;;;;;;12.35;1.95;;;18.00;99.90;;;;;;5138805;27;20422;-70
2023/07/13 04:55:36;;;;;;;3.33;1.70;;;18.10;99.90;;;;;;5138785;27;20038;-70
2023/07/13 04:58:02;;;;;;;8.82;1.83;;;18.00;99.90;;;;;;5139355;27;20031;-70
2023/07/13 05:00:29;;;;;;;3.25;2.00;;;18.10;99.90;;;;;;5138243;27;20031;-70
2023/07/13 05:02:58;;;;;;;;;;;17.70;99.90;;;;;;5138390;27;20104;-70
2023/07/13 05:05:25;;;;;;;7.22;1.90;;;17.70;99.90;;;;;;5139486;27;19911;-70
2023/07/13 05:07:51;;;;;;;2.40;1.75;;;18.10;99.90;;;;;;5140063;27;20038;-70
2023/07/13 05:10:16;;;;;;;8.02;2.20;;;18.10;99.90;;;;;;5140499;27;20035;-70
2023/07/13 05:12:42;;;;;;;7.27;2.37;;;18.00;99.90;;;;;;5139480;27;20030;-70
2023/07/13 05:15:08;;;;;;;7.10;2.60;;;18.10;99.90;;;;;;5139850;27;20035;-70
2023/07/13 05:17:33;;;;;;;17.40;3.05;;;18.20;99.90;;;;;;5140083;27;20030;-70
2023/07/13 05:19:59;;;;;;;7.47;2.53;;;17.80;99.90;;;;;;5139259;27;20049;-69
2023/07/13 05:22:25;;;;;;;3.93;2.50;;;17.90;99.90;;;;;;5143553;27;20022;-70
2023/07/13 05:24:50;;;;;;;3.42;2.28;;;18.30;99.90;;;;;;5138875;27;20451;-70
2023/07/13 05:27:16;;;;;;;3.60;2.27;;;18.30;99.90;;;;;;5141169;27;20070;-71
2023/07/13 05:29:42;;;;;;;3.63;2.00;;;18.50;99.90;;;;;;5135212;27;20068;-70
2023/07/13 05:32:07;;;;;;;4.77;2.33;;;18.70;99.90;;;;;;5139796;27;20037;-69
2023/07/13 05:34:33;;;;;;;3.97;2.40;;;18.90;99.90;;;;;;5136446;27;20743;-69
2023/07/13 05:36:58;;;;;;;12.33;2.53;;;19.00;99.90;;;;;;5134466;27;20035;-69
2023/07/13 05:39:26;;;;;;;7.53;2.30;;;18.90;99.90;;;;;;5133883;27;20039;-74
2023/07/13 05:41:51;;;;;;;7.95;2.80;;;19.10;99.90;;;;;;5142522;27;20031;-70
2023/07/13 05:44:18;;;;;;;4.60;2.15;;;19.00;99.90;;;;;;5135677;27;20056;-75
2023/07/13 05:46:44;;;;;;;4.65;2.22;;;19.20;99.90;;;;;;5135315;27;20070;-70
2023/07/13 05:49:10;;;;;;;5.95;2.40;;;19.40;99.90;;;;;;5140305;27;20054;-71
2023/07/13 05:51:35;;;;;;;4.40;2.37;;;19.40;99.90;;;;;;5138805;27;20031;-73
2023/07/13 05:54:01;;;;;;;9.63;2.20;;;19.50;99.90;;;;;;5139095;27;20027;-74
2023/07/13 05:56:26;;;;;;;5.77;2.33;;;19.60;99.90;;;;;;5138365;27;20038;-75
2023/07/13 05:58:52;;;;;;;6.00;2.73;;;19.60;99.90;;;;;;5142389;27;20057;-75
2023/07/13 06:01:20;;;;;;;5.27;2.27;;;21.10;99.90;;;;;;5139104;27;20288;-75
2023/07/13 06:03:46;;;;;;;2.47;2.05;;;24.10;99.90;;;;;;5140702;27;20034;-69
2023/07/13 06:06:12;;;;;;;4.22;2.10;;;22.90;98.70;;;;;;5141762;27;20030;-69
2023/07/13 06:08:37;;;;;;;5.20;2.20;;;21.90;99.90;;;;;;5143197;27;20035;-74
2023/07/13 06:11:09;;;;;;;6.10;2.10;;;21.00;99.90;;;;;;5143097;27;20285;-70
2023/07/13 06:13:35;;;;;;;5.72;2.33;;;20.60;99.90;;;;;;5142992;27;20105;-69
2023/07/13 06:16:04;;;;;;;4.22;2.25;;;20.10;99.90;;;;;;5139892;27;20118;-72
2023/07/13 06:18:30;;;;;;;9.32;2.38;;;20.10;99.90;;;;;;5140643;27;20035;-72
2023/07/13 06:20:56;;;;;;;4.85;2.55;;;20.00;99.90;;;;;;5140069;27;20035;-70
2023/07/13 06:23:23;;;;;;;4.10;2.60;;;20.30;99.90;;;;;;5138632;27;20027;-69
2023/07/13 06:25:48;;;;;;;;;;;21.00;99.90;;;;;;5142339;27;20313;-70
2023/07/13 06:28:14;;;;;;;4.75;2.58;;;21.20;99.90;;;;;;5141931;27;19911;-70
2023/07/13 06:30:39;;;;;;;5.97;2.50;;;21.90;99.90;;;;;;5141323;27;20080;-73
2023/07/13 06:33:05;;;;;;;6.70;3.03;;;23.30;99.90;;;;;;5141469;27;20026;-72
2023/07/13 06:35:31;;;;;;;3.42;1.90;;;24.50;93.70;;;;;;5141210;27;20106;-75
2023/07/13 06:37:57;;;;;;;6.25;2.15;;;24.10;95.70;;;;;;5146844;27;20045;-72
2023/07/13 06:40:22;;;;;;;9.27;2.40;;;24.00;96.10;;;;;;5137397;27;20038;-73
2023/07/13 06:42:48;;;;;;;4.03;1.80;;;24.10;95.40;;;;;;5144951;27;20080;-68
2023/07/13 06:45:14;;;;;;;4.27;2.07;;;24.20;95.90;;;;;;5140971;27;20091;-72
2023/07/13 06:47:39;;;;;;;3.75;1.98;;;24.60;92.60;;;;;;5144767;27;20113;-71
2023/07/13 06:50:06;;;;;;;8.20;2.03;;;25.40;93.30;;;;;;5144754;27;20038;-71
2023/07/13 06:52:31;;;;;;;5.53;2.53;;;26.30;88.60;;;;;;5141758;27;20436;-72
2023/07/13 06:54:57;;;;;;;4.40;2.03;;;25.20;90.50;;;;;;5137738;27;20092;-70
2023/07/13 06:57:23;;;;;;;8.45;2.10;;;24.00;92.00;;;;;;5140734;27;20027;-74
2023/07/13 06:59:48;;;;;;;4.50;2.28;;;23.40;94.00;;;;;;5141414;27;20042;-69
2023/07/13 07:02:14;;;;;;;5.93;2.10;;;24.40;91.90;;;;;;5135826;27;20104;-70
2023/07/13 07:04:39;;;;;;;3.67;1.77;;;25.20;89.30;;;;;;5138449;27;20418;-71
2023/07/13 07:07:05;;;;;;;5.45;1.85;;;24.60;91.70;;;;;;5139632;27;20019;-71
2023/07/13 07:09:31;;;;;;;7.67;2.33;;;24.90;91.60;;;;;;5139288;27;20023;-69
2023/07/13 07:11:57;;;;;;;14.68;2.55;;;25.20;90.80;;;;;;5141569;27;20308;-70
2023/07/13 07:14:23;;;;;;;4.88;2.15;;;25.60;89.90;;;;;;5140062;27;20074;-72
2023/07/13 07:16:49;;;;;;;6.75;2.60;;;25.20;87.60;;;;;;5137499;27;20022;-72
2023/07/13 07:19:15;;;;;;;3.55;1.30;;;24.70;90.20;;;;;;5136238;27;20042;-75
2023/07/13 07:21:41;;;;;;;6.32;1.52;;;24.10;91.10;;;;;;5141698;27;20446;-74
2023/07/13 07:24:07;;;;;;;7.05;1.92;;;24.00;91.40;;;;;;5136084;27;20064;-71
2023/07/13 07:26:33;;;;;;;5.32;1.63;;;23.70;92.00;;;;;;5144210;27;20462;-72
2023/07/13 07:28:59;;;;;;;3.75;1.70;;;23.70;91.90;;;;;;5141365;27;20037;-75
2023/07/13 07:31:25;;;;;;;3.40;1.50;;;23.40;92.50;;;;;;5137112;27;20023;-72
2023/07/13 07:33:50;;;;;;;7.18;2.08;;;23.00;92.70;;;;;;5144842;27;20039;-69
2023/07/13 07:36:16;;;;;;;5.50;1.97;;;23.20;91.40;;;;;;5141083;27;20122;-71
2023/07/13 07:38:43;;;;;;;9.32;2.17;;;23.20;92.30;;;;;;5142339;27;20095;-67
2023/07/13 07:41:10;;;;;;;5.75;2.25;;;23.10;92.00;;;;;;5138331;27;20716;-71
2023/07/13 07:43:36;;;;;;;4.35;1.77;;;22.80;91.40;;;;;;5141124;27;20134;-72
2023/07/13 07:46:02;;;;;;;;;;;22.80;92.30;;;;;;5142536;27;20056;-80
2023/07/13 07:48:27;;;;;;;4.22;1.88;;;23.00;92.50;;;;;;5142710;27;20305;-75
2023/07/13 07:50:53;;;;;;;14.83;2.80;;;23.20;91.60;;;;;;5140242;27;20066;-73
2023/07/13 07:53:19;;;;;;;7.80;1.90;;;23.00;92.10;;;;;;5136598;27;20027;-69
2023/07/13 07:55:45;;;;;;;10.57;2.50;;;22.80;93.50;;;;;;5136980;27;20031;-75
2023/07/13 07:58:10;;;;;;;15.43;3.08;;;22.60;93.40;;;;;;5140833;27;20577;-66
2023/07/13 08:00:36;;;;;;;3.70;1.70;;;22.90;93.00;;;;;;5142927;27;20022;-72
2023/07/13 08:03:02;;;;;;;5.03;1.87;;;22.60;93.20;;;;;;5132394;27;20019;-72
2023/07/13 08:05:28;;;;;;;10.52;2.38;;;22.90;92.20;;;;;;5137653;27;20041;-66
2023/07/13 08:07:54;;;;;;;415.90;74.95;;;22.70;93.30;;;;;;5137949;27;20022;-66
2023/07/13 08:10:20;;;;;;;68.57;12.15;;;22.70;93.00;;;;;;5138519;27;20022;-69
2023/07/13 08:12:45;;;;;;;8.43;2.40;;;22.60;91.90;;;;;;5143520;27;20083;-74
2023/07/13 08:15:14;;;;;;;7.93;2.03;;;22.90;92.10;;;;;;5137272;27;20042;-72
2023/07/13 08:17:39;;;;;;;6.65;2.53;;;23.50;91.90;;;;;;5138306;27;20019;-71
2023/07/13 08:20:06;;;;;;;5.10;2.10;;;26.40;84.80;;;;;;5140244;27;20041;-71
2023/07/13 08:22:32;;;;;;;7.57;2.80;;;29.60;73.80;;;;;;5136567;27;20139;-67
2023/07/13 08:24:59;;;;;;;5.10;2.00;;;26.50;76.60;;;;;;5135693;27;20119;-73
2023/07/13 08:27:26;;;;;;;12.25;2.70;;;25.70;78.20;;;;;;5135551;27;20026;-72
2023/07/13 08:29:52;;;;;;;7.65;2.35;;;24.90;82.60;;;;;;5139079;27;20815;-70
2023/07/13 08:32:19;;;;;;;;;;;25.60;81.90;;;;;;5136838;27;20049;-71
2023/07/13 08:34:44;;;;;;;8.25;1.92;;;29.00;75.10;;;;;;5134235;27;19907;-69
2023/07/13 08:37:10;;;;;;;6.50;1.70;;;32.10;65.70;;;;;;5133832;27;20079;-71
2023/07/13 08:39:36;;;;;;;3.13;1.52;;;32.50;60.30;;;;;;5138044;27;20043;-73
2023/07/13 08:42:33;;;;;;;6.13;2.47;;;32.60;61.50;;;;;;5137625;27;20451;-71
2023/07/13 08:45:14;;;;;;;4.95;2.15;;;32.80;59.90;;;;;;5137701;27;20031;-70
2023/07/13 08:48:03;;;;;;;6.53;1.92;;;32.60;61.20;;;;;;5140059;27;20035;-74
2023/07/13 08:50:34;;;;;;;3.75;1.90;;;33.40;59.10;;;;;;5138744;27;20078;-70
2023/07/13 08:53:02;;;;;;;11.95;2.28;;;35.50;57.00;;;;;;5138997;27;20027;-73
2023/07/13 08:55:33;;;;;;;8.10;1.63;;;33.30;58.50;;;;;;5142054;27;20042;-69
2023/07/13 08:58:13;;;;;;;2.75;1.50;;;32.30;60.70;;;;;;5139686;27;20054;-69
2023/07/13 09:01:12;;;;;;;4.07;1.30;;;29.60;64.90;;;;;;5138991;27;20019;-67
2023/07/13 09:03:50;;;;;;;2.95;1.85;;;28.70;66.70;;;;;;5134794;27;20268;-68
2023/07/13 09:06:16;;;;;;;7.43;2.10;;;34.20;60.00;;;;;;5138389;27;20275;-71
2023/07/13 09:09:06;;;;;;;7.65;1.20;;;34.00;55.80;;;;;;5139837;27;20027;-69
2023/07/13 09:12:01;;;;;;;8.05;1.95;;;33.60;55.50;;;;;;5139899;27;20027;-68
2023/07/13 09:14:35;;;;;;;6.45;2.08;;;35.50;56.30;;;;;;5141291;27;20109;-68
2023/07/13 09:17:10;;;;;;;8.50;1.92;;;37.00;52.10;;;;;;5133282;27;20019;-69
2023/07/13 09:19:36;;;;;;;4.53;1.95;;;38.30;51.50;;;;;;5138278;27;20039;-70
2023/07/13 09:22:03;;;;;;;;;;;39.90;48.70;;;;;;5134939;27;20398;-70
2023/07/13 09:24:29;;;;;;;;;;;39.90;48.90;;;;;;5136939;27;19915;-69
2023/07/13 09:26:56;;;;;;;3.28;1.45;;;39.20;48.20;;;;;;5138070;27;19917;-69
2023/07/13 09:29:28;;;;;;;6.70;2.00;;;40.50;48.20;;;;;;5134439;27;20046;-69
2023/07/13 09:31:58;;;;;;;3.38;1.63;;;41.30;48.10;;;;;;5136717;27;20033;-70
2023/07/13 09:34:23;;;;;;;6.20;1.40;;;38.40;47.40;;;;;;5136773;27;20080;-70
2023/07/13 09:36:49;;;;;;;4.65;1.25;;;35.50;49.00;;;;;;5142242;27;20055;-69
2023/07/13 09:39:32;;;;;;;8.43;1.63;;;32.20;57.00;;;;;;5139959;27;20078;-68
2023/07/13 09:42:16;;;;;;;5.97;2.25;;;30.60;58.30;;;;;;5136585;27;20098;-71
2023/07/13 09:44:48;;;;;;;7.07;1.63;;;34.80;55.00;;;;;;5136062;27;20023;-70
2023/07/13 09:47:23;;;;;;;2.50;1.67;;;38.50;50.30;;;;;;5140164;27;20716;-69
2023/07/13 09:50:02;;;;;;;4.50;1.60;;;38.60;48.60;;;;;;5137453;27;20078;-69
2023/07/13 09:52:46;;;;;;;5.30;1.70;;;40.20;49.00;;;;;;5137871;27;20022;-70
2023/07/13 09:55:30;;;;;;;2.65;1.33;;;37.30;48.90;;;;;;5134887;27;20113;-69
2023/07/13 09:57:56;;;;;;;6.07;1.88;;;32.50;53.10;;;;;;5135835;27;20055;-70
2023/07/13 10:00:26;;;;;;;;;;;30.10;57.20;;;;;;5138754;27;20084;-69
2023/07/13 10:03:00;;;;;;;3.08;1.58;;;32.60;57.60;;;;;;5134534;27;19922;-69
2023/07/13 10:05:26;;;;;;;5.63;1.73;;;36.70;52.40;;;;;;5133754;27;20027;-70
2023/07/13 10:07:52;;;;;;;;;;;38.80;49.40;;;;;;5136480;27;20681;-70
2023/07/13 10:10:26;;;;;;;4.00;1.92;;;39.20;48.10;;;;;;5134390;27;19951;-69
2023/07/13 10:12:52;;;;;;;2.38;1.48;;;38.80;46.90;;;;;;5135833;27;20409;-69
2023/07/13 10:15:23;;;;;;;5.32;2.00;;;36.20;48.90;;;;;;5138579;27;20015;-68
2023/07/13 10:17:50;;;;;;;3.15;1.60;;;38.60;49.10;;;;;;5138793;27;20073;-67
2023/07/13 10:20:16;;;;;;;2.60;1.23;;;37.50;47.00;;;;;;5137301;27;20502;-71
2023/07/13 10:22:54;;;;;;;5.53;1.85;;;39.90;46.20;;;;;;5143006;27;20079;-70
2023/07/13 10:25:25;;;;;;;1.80;1.25;;;39.60;46.70;;;;;;5134516;27;20030;-69
2023/07/13 10:27:54;;;;;;;4.20;1.40;;;39.10;46.50;;;;;;5138837;27;20031;-69
2023/07/13 10:30:29;;;;;;;5.22;1.42;;;39.40;47.80;;;;;;5145933;27;20047;-70
2023/07/13 10:33:10;;;;;;;4.40;1.23;;;35.30;48.30;;;;;;5137037;27;20162;-71
2023/07/13 10:35:37;;;;;;;4.15;1.35;;;33.10;55.20;;;;;;5142181;27;20031;-71
2023/07/13 10:38:17;;;;;;;2.83;1.52;;;31.80;55.40;;;;;;5137496;27;20467;-70
2023/07/13 10:40:56;;;;;;;3.28;2.15;;;30.50;56.60;;;;;;5136164;27;20521;-70
2023/07/13 10:43:30;;;;;;;3.38;1.30;;;30.00;58.90;;;;;;5142636;27;20054;-70
2023/07/13 10:45:56;;;;;;;3.83;1.23;;;29.90;58.70;;;;;;5140693;27;20048;-70
2023/07/13 10:48:23;;;;;;;5.03;1.40;;;29.30;53.80;;;;;;5142371;27;20042;-71
2023/07/13 10:50:52;;;;;;;3.83;1.40;;;28.70;56.40;;;;;;5143714;27;20441;-70
2023/07/13 10:53:29;;;;;;;2.47;1.17;;;28.10;57.90;;;;;;5140593;27;20042;-71
2023/07/13 10:56:00;;;;;;;5.00;1.65;;;28.70;59.60;;;;;;5138804;27;20058;-71
2023/07/13 10:58:33;;;;;;;6.10;1.50;;;28.70;57.90;;;;;;5139600;27;20087;-71
2023/07/13 11:01:15;;;;;;;3.53;1.48;;;28.90;58.00;;;;;;5145333;27;20474;-70
2023/07/13 11:03:56;;;;;;;5.22;1.60;;;29.00;59.30;;;;;;5144542;27;20110;-71
2023/07/13 11:06:31;;;;;;;3.10;1.35;;;28.90;57.90;;;;;;5141954;27;20211;-70
2023/07/13 11:08:59;;;;;;;4.40;1.20;;;28.80;59.20;;;;;;5136820;27;20110;-71
2023/07/13 11:11:31;;;;;;;3.97;1.65;;;28.90;59.40;;;;;;5137785;27;20146;-70
2023/07/13 11:13:58;;;;;;;3.55;1.77;;;29.10;59.70;;;;;;5139321;27;20113;-71
2023/07/13 11:16:24;;;;;;;2.75;1.52;;;28.70;58.60;;;;;;5137353;27;20486;-70
2023/07/13 11:18:52;;;;;;;3.90;1.77;;;28.70;60.30;;;;;;5138725;27;20041;-70
2023/07/13 11:21:26;;;;;;;3.08;1.65;;;28.90;60.60;;;;;;5141628;27;20037;-70
2023/07/13 11:24:00;;;;;;;8.65;1.65;;;28.70;60.50;;;;;;5140439;27;20023;-71
2023/07/13 11:26:46;;;;;;;1.90;1.50;;;28.40;58.40;;;;;;5155437;27;20035;-70
2023/07/13 11:29:15;;;;;;;3.35;1.70;;;28.50;60.70;;;;;;5124154;27;20065;-71
2023/07/13 11:31:43;;;;;;;2.30;1.33;;;27.80;59.70;;;;;;5140527;27;20042;-70
2023/07/13 11:34:26;;;;;;;2.85;1.40;;;27.90;61.10;;;;;;5142332;27;20542;-71
2023/07/13 11:36:52;;;;;;;4.65;1.52;;;27.80;58.40;;;;;;5137047;27;20034;-70
2023/07/13 11:39:17;;;;;;;5.88;1.67;;;27.30;60.00;;;;;;5138900;27;20545;-70
2023/07/13 11:41:57;;;;;;;2.88;1.52;;;27.60;62.80;;;;;;5140257;27;20154;-70
2023/07/13 11:44:24;;;;;;;9.45;1.88;;;27.70;58.30;;;;;;5139114;27;20036;-70
2023/07/13 11:46:56;;;;;;;4.15;1.60;;;27.40;58.90;;;;;;5141010;27;20161;-70
2023/07/13 11:49:26;;;;;;;3.45;1.75;;;28.00;64.60;;;;;;5140239;27;20030;-70
2023/07/13 11:51:56;;;;;;;4.70;1.42;;;28.10;60.60;;;;;;5140768;27;20027;-70
2023/07/13 11:54:24;;;;;;;4.68;1.42;;;28.30;60.80;;;;;;5137625;27;20488;-70
2023/07/13 11:56:50;;;;;;;3.00;1.55;;;28.20;60.60;;;;;;5143588;27;20118;-69
2023/07/13 11:59:16;;;;;;;6.43;1.73;;;28.20;61.20;;;;;;5138824;27;20057;-70
2023/07/13 12:01:52;;;;;;;5.50;1.10;;;28.50;60.50;;;;;;5138803;27;20678;-70
2023/07/13 12:04:32;;;;;;;10.43;2.05;;;28.10;57.30;;;;;;5141947;27;20042;-70
2023/07/13 12:07:08;;;;;;;2.42;1.33;;;28.40;61.20;;;;;;5142373;27;20245;-69
2023/07/13 12:09:36;;;;;;;3.00;1.42;;;28.00;61.70;;;;;;5137225;27;20027;-69
2023/07/13 12:12:02;;;;;;;4.82;1.48;;;27.90;60.70;;;;;;5136941;27;20034;-69
2023/07/13 12:14:28;;;;;;;1.85;1.33;;;28.10;61.40;;;;;;5142977;27;20130;-69
2023/07/13 12:16:56;;;;;;;2.53;1.40;;;27.90;59.30;;;;;;5140218;27;20114;-69
2023/07/13 12:19:27;;;;;;;4.28;1.45;;;27.30;62.30;;;;;;5140498;27;20114;-69
2023/07/13 12:21:56;;;;;;;2.05;1.40;;;27.70;64.50;;;;;;5140579;27;20027;-69
2023/07/13 12:24:23;;;;;;;4.68;1.30;;;28.00;62.00;;;;;;5139850;27;20370;-69
2023/07/13 12:27:26;;;;;;;2.35;1.30;;;28.10;57.50;;;;;;5138898;27;20030;-69
2023/07/13 12:30:05;;;;;;;4.57;1.40;;;28.10;61.80;;;;;;5139841;27;20506;-69
2023/07/13 12:32:31;;;;;;;3.72;1.70;;;28.30;62.10;;;;;;5134816;27;20031;-69
2023/07/13 12:35:15;;;;;;;2.17;1.35;;;28.30;58.10;;;;;;5137556;27;21512;-70
2023/07/13 12:37:46;;;;;;;6.00;1.63;;;28.40;61.10;;;;;;5133140;27;20088;-69
2023/07/13 12:40:22;;;;;;;3.10;1.40;;;28.20;59.40;;;;;;5140154;27;20042;-70
2023/07/13 12:42:49;;;;;;;6.03;1.50;;;28.10;59.40;;;;;;5141505;27;20033;-68
2023/07/13 12:45:23;;;;;;;3.33;1.58;;;28.30;59.60;;;;;;5136397;27;20030;-69
2023/07/13 12:47:54;;;;;;;6.20;1.50;;;28.50;59.40;;;;;;5136942;27;20486;-68
2023/07/13 12:50:22;;;;;;;2.83;1.13;;;28.20;60.60;;;;;;5138242;27;20453;-68
2023/07/13 12:52:53;;;;;;;3.08;1.35;;;28.10;59.90;;;;;;5135007;27;20530;-69
2023/07/13 12:55:20;;;;;;;3.78;1.58;;;27.30;60.50;;;;;;5144353;27;20121;-69
2023/07/13 12:57:56;;;;;;;5.55;1.45;;;27.90;62.00;;;;;;5141940;27;20394;-69